Time;durP1;ratioP1;P1;durP2;ratioP2;P2;SDS_P1;SDS_P2;PMS_P1;PMS_P2;Temp;Humidity;BMP_temperature;BMP_pressure;BME280_temperature;BME280_humidity;BME280_pressure;Samples;Min_cycle;Max_cycle;Signal;HPM_P1;HPM_P2
2023/05/11 00:01:32;;;;;;;2.90;0.95;;;;;;;10.75;100.00;100693.69;4936420;29;20043;-79
2023/05/11 00:03:58;;;;;;;4.50;1.13;;;;;;;10.71;100.00;100687.88;4936154;29;20039;-79
2023/05/11 00:06:24;;;;;;;4.95;0.90;;;;;;;10.71;100.00;100689.84;4920366;29;20540;-79
2023/05/11 00:08:49;;;;;;;4.10;1.17;;;;;;;10.70;100.00;100690.97;4920940;29;20028;-79
2023/05/11 00:11:17;;;;;;;2.72;1.10;;;;;;;10.66;100.00;100689.88;4936266;29;20051;-79
2023/05/11 00:13:42;;;;;;;4.40;1.20;;;;;;;10.66;100.00;100684.31;4936493;29;20032;-79
2023/05/11 00:16:08;;;;;;;3.55;1.00;;;;;;;10.62;100.00;100695.19;4920341;29;20067;-79
2023/05/11 00:18:33;;;;;;;2.40;1.13;;;;;;;10.62;100.00;100694.38;4936363;29;20043;-79
2023/05/11 00:20:59;;;;;;;3.97;1.10;;;;;;;10.63;100.00;100690.47;4935840;29;20036;-79
2023/05/11 00:23:24;;;;;;;4.20;0.80;;;;;;;10.58;100.00;100696.06;4920518;29;20032;-79
2023/05/11 00:25:50;;;;;;;2.50;1.08;;;;;;;10.61;100.00;100687.13;4935756;29;20087;-79
2023/05/11 00:28:15;;;;;;;2.58;1.17;;;;;;;10.59;100.00;100686.63;4936269;29;20032;-79
2023/05/11 00:30:41;;;;;;;3.85;1.25;;;;;;;10.58;100.00;100688.53;4920211;29;20043;-79
2023/05/11 00:33:06;;;;;;;2.83;1.10;;;;;;;10.57;100.00;100686.06;4936114;29;20036;-79
2023/05/11 00:35:32;;;;;;;2.42;0.93;;;;;;;10.54;100.00;100683.88;4935785;29;20024;-79
2023/05/11 00:37:58;;;;;;;2.90;0.88;;;;;;;10.55;100.00;100677.19;4917197;29;20021;-79
2023/05/11 00:40:24;;;;;;;4.40;0.98;;;;;;;10.56;100.00;100687.16;4926559;29;20065;-79
2023/05/11 00:42:49;;;;;;;4.88;1.13;;;;;;;10.54;100.00;100687.47;4904582;29;20103;-79
2023/05/11 00:45:15;;;;;;;4.47;1.15;;;;;;;10.58;100.00;100691.31;4920327;29;20480;-79
2023/05/11 00:47:40;;;;;;;3.55;1.27;;;;;;;10.54;100.00;100690.25;4926758;29;20032;-79
2023/05/11 00:50:07;;;;;;;3.05;1.08;;;;;;;10.54;100.00;100693.03;4935211;29;20028;-79
2023/05/11 00:52:33;;;;;;;4.63;1.23;;;;;;;10.54;100.00;100689.44;4919944;29;20092;-79
2023/05/11 00:54:58;;;;;;;5.25;1.00;;;;;;;10.55;100.00;100682.75;4906297;29;20060;-79
2023/05/11 00:57:24;;;;;;;2.78;1.10;;;;;;;10.54;100.00;100690.25;4890247;29;20048;-79
2023/05/11 00:59:49;;;;;;;4.32;1.20;;;;;;;10.49;100.00;100685.56;4931549;29;20477;-79
2023/05/11 01:02:15;;;;;;;7.43;1.25;;;;;;;10.49;100.00;100681.97;4935546;29;20492;-79
2023/05/11 01:04:41;;;;;;;2.47;1.05;;;;;;;10.51;100.00;100686.09;4919516;29;20032;-79
2023/05/11 01:07:20;;;;;;;3.20;0.93;;;;;;;10.51;100.00;100688.88;4935513;29;20024;-79
2023/05/11 01:09:49;;;;;;;4.95;1.27;;;;;;;10.52;100.00;100684.16;4920667;29;20043;-79
2023/05/11 01:12:20;;;;;;;5.00;1.00;;;;;;;10.50;100.00;100681.69;4935566;28;20071;-79
2023/05/11 01:14:57;;;;;;;3.17;1.00;;;;;;;10.48;100.00;100678.34;4919458;29;20047;-79
2023/05/11 01:17:28;;;;;;;3.03;0.98;;;;;;;10.49;100.00;100679.19;4916716;29;20035;-79
2023/05/11 01:19:56;;;;;;;5.30;1.00;;;;;;;10.48;100.00;100681.13;4934807;29;20036;-79
2023/05/11 01:22:56;;;;;;;4.25;1.08;;;;;;;10.47;100.00;100679.50;4918058;29;20029;-79
2023/05/11 01:25:35;;;;;;;5.80;0.90;;;;;;;10.51;100.00;100669.44;4934988;29;20040;-78
2023/05/11 01:28:37;;;;;;;3.08;0.82;;;;;;;10.49;100.00;100668.91;4919554;29;20043;-79
2023/05/11 01:31:06;;;;;;;4.22;1.05;;;;;;;10.47;100.00;100676.72;4935158;29;20056;-79
2023/05/11 01:33:32;;;;;;;2.25;0.90;;;;;;;10.50;100.00;100670.56;4919091;29;20090;-79
2023/05/11 01:36:03;;;;;;;2.72;0.90;;;;;;;10.47;100.00;100673.94;4935134;29;20040;-78
2023/05/11 01:38:31;;;;;;;4.75;1.20;;;;;;;10.46;100.00;100675.03;4916920;29;20037;-79
2023/05/11 01:40:57;;;;;;;5.03;0.80;;;;;;;10.49;100.00;100668.06;4915894;29;20485;-79
2023/05/11 01:43:23;;;;;;;3.63;1.00;;;;;;;10.47;100.00;100665.59;4934868;29;20032;-79
2023/05/11 01:45:49;;;;;;;3.45;0.85;;;;;;;10.50;100.00;100670.56;4934685;29;20075;-79
2023/05/11 01:48:20;;;;;;;6.53;0.82;;;;;;;10.44;100.00;100666.16;4903360;29;20028;-79
2023/05/11 01:50:46;;;;;;;3.80;0.80;;;;;;;10.44;100.00;100666.16;4918118;29;20036;-79
2023/05/11 01:53:11;;;;;;;3.05;0.80;;;;;;;10.44;100.00;100668.94;4933970;29;20040;-79
2023/05/11 01:55:37;;;;;;;4.35;0.95;;;;;;;10.44;100.00;100666.16;4934286;29;20071;-79
2023/05/11 01:58:02;;;;;;;2.88;0.90;;;;;;;10.42;100.00;100665.63;4880385;29;20473;-79
2023/05/11 02:00:28;;;;;;;3.00;0.70;;;;;;;10.43;100.00;100663.69;4915741;29;20033;-79
2023/05/11 02:02:54;;;;;;;3.28;0.75;;;;;;;10.42;100.00;100667.56;4922899;29;20441;-78
2023/05/11 02:05:21;;;;;;;8.13;1.17;;;;;;;10.40;100.00;100665.09;4934739;29;20059;-79
2023/05/11 02:07:48;;;;;;;3.08;0.80;;;;;;;10.41;100.00;100660.38;4917054;29;20043;-79
2023/05/11 02:10:14;;;;;;;3.35;0.90;;;;;;;10.38;100.00;100664.53;4918479;29;20503;-79
2023/05/11 02:12:39;;;;;;;3.90;0.85;;;;;;;10.34;100.00;100659.88;4934542;29;20028;-79
2023/05/11 02:15:06;;;;;;;3.35;1.15;;;;;;;10.34;100.00;100660.69;4934509;29;20036;-79
2023/05/11 02:17:31;;;;;;;5.03;1.00;;;;;;;10.31;100.00;100652.97;4917527;29;20063;-79
2023/05/11 02:19:57;;;;;;;4.13;0.80;;;;;;;10.26;100.00;100656.56;4918865;29;20028;-79
2023/05/11 02:22:22;;;;;;;4.85;1.20;;;;;;;10.25;100.00;100654.06;4934770;29;20478;-79
2023/05/11 02:24:48;;;;;;;2.63;0.85;;;;;;;10.21;100.00;100653.81;4934287;29;20036;-79
2023/05/11 02:27:13;;;;;;;4.95;0.90;;;;;;;10.21;100.00;100659.34;4918601;29;20036;-79
2023/05/11 02:29:39;;;;;;;2.83;0.70;;;;;;;10.18;100.00;100653.56;4934588;29;20448;-79
2023/05/11 02:32:06;;;;;;;4.55;1.00;;;;;;;10.14;100.00;100660.78;4934432;29;20028;-79
2023/05/11 02:34:36;;;;;;;5.57;1.00;;;;;;;10.10;100.00;100655.00;4934428;29;20040;-79
2023/05/11 02:37:01;;;;;;;4.53;0.80;;;;;;;10.08;100.00;100657.22;4918530;29;20107;-79
2023/05/11 02:39:31;;;;;;;2.17;0.73;;;;;;;10.07;100.00;100650.84;4918378;29;20032;-79
2023/05/11 02:41:57;;;;;;;4.45;0.80;;;;;;;10.03;100.00;100655.31;4918579;29;20536;-79
2023/05/11 02:44:23;;;;;;;3.20;0.63;;;;;;;10.04;100.00;100654.19;4915429;29;20040;-79
2023/05/11 02:46:48;;;;;;;2.45;0.80;;;;;;;10.01;100.00;100646.44;4915523;29;20032;-79
2023/05/11 02:49:14;;;;;;;5.10;1.00;;;;;;;9.99;100.00;100642.31;4927317;29;20032;-79
2023/05/11 02:51:42;;;;;;;7.53;1.02;;;;;;;9.96;100.00;100640.94;4918247;29;20481;-79
2023/05/11 02:54:09;;;;;;;4.50;0.95;;;;;;;9.95;100.00;100646.78;4918133;29;20044;-79
2023/05/11 02:56:35;;;;;;;3.72;1.33;;;;;;;9.92;100.00;100648.19;4918349;29;20063;-79
2023/05/11 02:59:01;;;;;;;3.80;0.90;;;;;;;9.91;100.00;100643.72;4915235;29;20033;-78
2023/05/11 03:01:27;;;;;;;3.00;0.90;;;;;;;9.89;100.00;100645.97;4934062;29;20037;-79
2023/05/11 03:03:52;;;;;;;4.10;1.30;;;;;;;9.89;100.00;100654.31;4919832;29;20032;-79
2023/05/11 03:06:18;;;;;;;3.60;1.00;;;;;;;9.84;100.00;100652.38;4921849;29;20115;-79
2023/05/11 03:08:43;;;;;;;4.90;0.75;;;;;;;9.84;100.00;100651.56;4921747;29;20032;-79
2023/05/11 03:11:09;;;;;;;1.98;0.73;;;;;;;9.83;100.00;100656.28;4937652;29;20088;-79
2023/05/11 03:13:35;;;;;;;4.93;1.05;;;;;;;9.80;100.00;100647.69;4921894;29;20434;-79
2023/05/11 03:16:01;;;;;;;4.82;0.95;;;;;;;9.79;100.00;100651.56;4937493;29;20043;-79
2023/05/11 03:18:26;;;;;;;3.30;0.93;;;;;;;9.77;100.00;100646.31;4921647;29;20069;-79
2023/05/11 03:20:52;;;;;;;4.57;1.10;;;;;;;9.78;100.00;100644.38;4937330;29;20040;-80
2023/05/11 03:23:17;;;;;;;4.88;1.02;;;;;;;9.76;100.00;100639.09;4937412;29;20033;-79
2023/05/11 03:25:43;;;;;;;5.78;1.10;;;;;;;9.70;100.00;100643.03;4921283;29;20113;-79
2023/05/11 03:28:08;;;;;;;2.80;0.77;;;;;;;9.71;100.00;100646.63;4937461;29;20120;-79
2023/05/11 03:30:34;;;;;;;4.72;0.90;;;;;;;9.74;100.00;100637.72;4937299;29;20076;-79
2023/05/11 03:32:59;;;;;;;2.47;0.70;;;;;;;9.68;100.00;100638.88;4937257;29;20036;-79
2023/05/11 03:35:26;;;;;;;2.58;0.90;;;;;;;9.69;100.00;100635.81;4921709;29;20032;-79
2023/05/11 03:37:51;;;;;;;9.90;1.00;;;;;;;9.65;100.00;100643.03;4922617;29;20476;-79
2023/05/11 03:40:17;;;;;;;3.72;1.00;;;;;;;9.68;100.00;100636.09;4936884;29;20059;-79
2023/05/11 03:42:43;;;;;;;4.57;1.27;;;;;;;9.64;100.00;100635.84;4921380;29;20039;-79
2023/05/11 03:45:08;;;;;;;2.72;1.02;;;;;;;9.65;100.00;100633.91;4936867;29;20040;-79
2023/05/11 03:47:34;;;;;;;6.10;0.80;;;;;;;9.61;100.00;100637.25;4937055;29;20401;-79
2023/05/11 03:49:59;;;;;;;2.15;0.90;;;;;;;9.61;100.00;100631.69;4936754;29;20473;-79
2023/05/11 03:52:25;;;;;;;3.63;0.82;;;;;;;9.60;100.00;100635.56;4920705;29;20051;-79
2023/05/11 03:54:50;;;;;;;5.70;1.13;;;;;;;9.63;100.00;100625.84;4891453;29;20032;-79
2023/05/11 03:57:16;;;;;;;3.58;0.90;;;;;;;9.60;100.00;100631.97;4939943;29;20032;-80
2023/05/11 03:59:41;;;;;;;2.88;0.93;;;;;;;9.58;100.00;100631.41;4939841;29;20027;-79
2023/05/11 04:02:07;;;;;;;5.85;1.30;;;;;;;9.57;100.00;100638.91;4924187;29;20035;-79
2023/05/11 04:04:33;;;;;;;2.58;0.80;;;;;;;9.55;100.00;100632.81;4940371;29;20031;-79
2023/05/11 04:06:58;;;;;;;4.50;1.08;;;;;;;9.59;100.00;100628.38;4941109;29;20036;-79
2023/05/11 04:09:24;;;;;;;2.00;0.90;;;;;;;9.57;100.00;100627.81;4923640;29;20028;-79
2023/05/11 04:11:49;;;;;;;3.33;1.05;;;;;;;9.57;100.00;100630.59;4920797;29;20036;-79
2023/05/11 04:14:16;;;;;;;4.30;1.00;;;;;;;9.56;100.00;100626.19;4928194;29;20086;-79
2023/05/11 04:16:42;;;;;;;1.50;0.75;;;;;;;9.54;100.00;100625.63;4920365;29;20031;-79
2023/05/11 04:19:07;;;;;;;2.42;0.90;;;;;;;9.54;100.00;100625.63;4939561;29;20039;-79
2023/05/11 04:21:33;;;;;;;3.75;0.88;;;;;;;9.53;100.00;100623.16;4939576;29;20429;-79
2023/05/11 04:23:58;;;;;;;3.33;1.08;;;;;;;9.55;100.00;100621.72;4923656;29;20031;-79
2023/05/11 04:26:25;;;;;;;3.42;1.08;;;;;;;9.56;100.00;100622.59;4920391;29;20035;-79
2023/05/11 04:28:50;;;;;;;6.40;1.00;;;;;;;9.52;100.00;100627.84;4923764;29;20064;-79
2023/05/11 04:31:16;;;;;;;2.22;0.90;;;;;;;9.49;100.00;100628.41;4939451;29;20082;-79
2023/05/11 04:33:41;;;;;;;5.35;1.17;;;;;;;9.48;100.00;100624.00;4939544;29;20043;-79
2023/05/11 04:36:07;;;;;;;3.15;1.08;;;;;;;9.48;100.00;100626.75;4923594;29;20428;-80
2023/05/11 04:38:32;;;;;;;3.33;0.98;;;;;;;9.43;100.00;100626.78;4923412;29;20100;-79
2023/05/11 04:41:04;;;;;;;2.08;0.88;;;;;;;9.46;100.00;100628.16;4939007;29;20444;-79
2023/05/11 04:43:30;;;;;;;2.90;1.00;;;;;;;9.46;100.00;100623.44;4939069;29;20042;-79
2023/05/11 04:45:55;;;;;;;2.38;1.20;;;;;;;9.39;100.00;100626.53;4923148;29;20043;-79
2023/05/11 04:48:21;;;;;;;3.20;1.10;;;;;;;9.40;100.00;100624.59;4923151;29;20032;-79
2023/05/11 04:50:46;;;;;;;2.33;0.90;;;;;;;9.35;100.00;100628.19;4919818;29;20032;-79
2023/05/11 04:53:12;;;;;;;3.47;1.10;;;;;;;9.32;100.00;100623.22;4911021;29;20127;-79
2023/05/11 04:55:38;;;;;;;2.97;1.13;;;;;;;9.33;100.00;100626.81;4935308;29;20492;-80
2023/05/11 04:58:03;;;;;;;3.53;1.20;;;;;;;9.27;100.00;100616.88;4917731;29;20037;-79
2023/05/11 05:00:28;;;;;;;2.83;1.10;;;;;;;9.27;100.00;100622.41;4935637;29;20084;-79
2023/05/11 05:02:54;;;;;;;3.63;0.80;;;;;;;9.27;100.00;100625.19;4935121;28;20040;-79
2023/05/11 05:05:20;;;;;;;3.00;1.00;;;;;;;9.25;100.00;100621.84;4935650;29;20035;-79
2023/05/11 05:07:45;;;;;;;4.78;1.00;;;;;;;9.25;100.00;100627.41;4935782;29;20098;-79
2023/05/11 05:10:11;;;;;;;5.70;1.15;;;;;;;9.29;100.00;100623.78;4935248;29;20039;-79
2023/05/11 05:12:37;;;;;;;3.03;0.85;;;;;;;9.36;100.00;100623.47;4919634;29;20028;-79
2023/05/11 05:15:04;;;;;;;3.33;1.13;;;;;;;9.40;100.00;100630.13;4916408;29;20065;-79
2023/05/11 05:17:29;;;;;;;4.65;1.15;;;;;;;9.46;100.00;100634.53;4935268;29;20481;-79
2023/05/11 05:19:56;;;;;;;5.03;1.25;;;;;;;9.53;100.00;100639.78;4935533;29;20062;-79
2023/05/11 05:22:22;;;;;;;3.35;1.00;;;;;;;9.58;100.00;100646.13;4935214;29;20036;-79
2023/05/11 05:24:48;;;;;;;2.78;1.13;;;;;;;9.61;100.00;100651.13;4935041;29;20035;-79
2023/05/11 05:27:13;;;;;;;4.15;1.08;;;;;;;9.69;100.00;100655.22;4935333;29;20497;-79
2023/05/11 05:29:39;;;;;;;4.13;1.17;;;;;;;9.72;100.00;100659.38;4935281;29;20052;-79
2023/05/11 05:32:04;;;;;;;3.05;1.00;;;;;;;9.77;100.00;100659.34;4935149;29;20048;-79
2023/05/11 05:34:30;;;;;;;6.07;1.50;;;;;;;9.80;100.00;100656.00;4935039;29;20544;-80
2023/05/11 05:36:55;;;;;;;4.32;1.77;;;;;;;9.83;100.00;100661.81;4935072;29;20036;-79
2023/05/11 05:39:21;;;;;;;3.40;1.10;;;;;;;9.87;100.00;100662.06;4919019;29;20032;-79
2023/05/11 05:41:46;;;;;;;4.90;1.10;;;;;;;9.92;100.00;100669.53;4918196;29;20045;-79
2023/05/11 05:44:11;;;;;;;5.60;1.17;;;;;;;9.95;100.00;100672.56;4919428;29;20040;-79
2023/05/11 05:46:37;;;;;;;7.18;1.58;;;;;;;9.99;100.00;100672.81;4918402;29;20110;-79
2023/05/11 05:49:02;;;;;;;3.90;1.17;;;;;;;10.05;100.00;100671.66;4934841;29;20031;-79
2023/05/11 05:51:28;;;;;;;6.53;1.33;;;;;;;10.07;100.00;100680.53;4934705;29;20052;-79
2023/05/11 05:53:53;;;;;;;4.47;1.33;;;;;;;10.11;100.00;100673.28;4919118;29;20092;-79
2023/05/11 05:56:20;;;;;;;3.53;1.10;;;;;;;10.17;100.00;100677.72;4934496;29;20386;-79
2023/05/11 05:58:46;;;;;;;3.53;1.45;;;;;;;10.24;100.00;100674.59;4918823;29;20067;-79
2023/05/11 06:01:11;;;;;;;5.30;1.30;;;;;;;10.28;100.00;100672.97;4918775;29;20031;-79
2023/05/11 06:03:38;;;;;;;3.65;1.20;;;;;;;10.35;100.00;100676.22;4934678;29;20055;-79
2023/05/11 06:06:05;;;;;;;4.03;1.15;;;;;;;10.40;100.00;100669.81;4918936;29;20091;-79
2023/05/11 06:08:31;;;;;;;7.38;1.77;;;;;;;10.45;100.00;100670.63;4919094;29;20055;-79
2023/05/11 06:10:56;;;;;;;4.53;1.40;;;;;;;10.51;100.00;100676.97;4918658;29;20066;-79
2023/05/11 06:13:22;;;;;;;6.35;1.50;;;;;;;10.58;100.00;100671.06;4918891;29;20039;-79
2023/05/11 06:15:47;;;;;;;7.32;1.77;;;;;;;10.64;100.00;100678.22;4934376;29;20036;-79
2023/05/11 06:18:13;;;;;;;7.18;1.48;;;;;;;10.71;100.00;100678.72;4918864;29;20036;-79
2023/05/11 06:20:38;;;;;;;5.78;1.27;;;;;;;10.76;100.00;100678.69;4902885;29;20040;-80
2023/05/11 06:23:04;;;;;;;4.15;1.15;;;;;;;10.83;100.00;100672.78;4918604;29;20047;-79
2023/05/11 06:25:32;;;;;;;6.93;1.40;;;;;;;10.88;100.00;100681.91;4934463;29;20080;-79
2023/05/11 06:27:58;;;;;;;8.73;1.88;;;;;;;10.98;100.00;100685.69;4918655;29;20082;-79
2023/05/11 06:30:23;;;;;;;7.97;1.40;;;;;;;11.05;100.00;100680.63;4918655;29;20036;-79
2023/05/11 06:32:49;;;;;;;9.85;1.77;;;;;;;11.10;100.00;100688.94;4934532;29;20489;-79
2023/05/11 06:35:15;;;;;;;13.85;1.80;;;;;;;11.17;100.00;100684.69;4918849;29;20040;-79
2023/05/11 06:37:40;;;;;;;5.30;1.55;;;;;;;11.25;100.00;100685.16;4918550;29;20043;-79
2023/05/11 06:40:07;;;;;;;7.00;1.40;;;;;;;11.31;100.00;100686.75;4938172;29;20393;-82
2023/05/11 06:42:32;;;;;;;8.80;1.50;;;;;;;11.39;100.00;100692.53;4938195;29;20109;-69
2023/05/11 06:44:58;;;;;;;7.43;1.70;;;;;;;11.48;100.00;100689.06;4937967;29;20433;-76
2023/05/11 06:47:23;;;;;;;5.53;1.70;;;;;;;11.55;100.00;100684.81;4919054;29;20529;-76
2023/05/11 06:49:49;;;;;;;9.50;1.92;;;;;;;11.64;100.00;100696.09;4905934;29;20035;-76
2023/05/11 06:52:14;;;;;;;10.20;2.22;;;;;;;11.70;100.00;100697.72;4922318;29;20040;-76
2023/05/11 06:54:40;;;;;;;8.15;2.25;;;;;;;11.78;100.00;100694.28;4922712;29;20036;-79
2023/05/11 06:57:05;;;;;;;6.28;1.63;;;;;;;11.86;100.00;100698.38;4921969;29;20032;-79
2023/05/11 06:59:31;;;;;;;7.63;1.50;;;;;;;11.94;100.00;100696.88;4924635;29;20031;-79
2023/05/11 07:01:57;;;;;;;9.52;2.17;;;;;;;12.04;100.00;100702.34;4952531;29;20043;-80
2023/05/11 07:04:23;;;;;;;7.25;1.67;;;;;;;12.12;100.00;100693.31;4922514;29;20171;-79
2023/05/11 07:06:48;;;;;;;11.45;2.00;;;;;;;12.20;100.00;100691.78;4921721;29;20028;-80
2023/05/11 07:09:14;;;;;;;9.95;1.92;;;;;;;12.32;100.00;100697.75;4924909;29;20079;-79
2023/05/11 07:11:40;;;;;;;6.82;1.70;;;;;;;12.40;100.00;100685.94;4906519;29;20040;-79
2023/05/11 07:14:07;;;;;;;9.60;1.60;;;;;;;12.53;100.00;100684.31;4935372;29;20346;-79
2023/05/11 07:16:36;;;;;;;7.18;1.52;;;;;;;12.67;100.00;100685.19;4924869;29;20028;-80
2023/05/11 07:19:05;;;;;;;8.80;2.10;;;;;;;12.80;100.00;100682.78;4940449;29;20031;-80
2023/05/11 07:21:33;;;;;;;7.05;1.58;;;;;;;12.92;100.00;100683.13;4940437;29;20032;-79
2023/05/11 07:23:58;;;;;;;6.93;1.40;;;;;;;13.07;100.00;100679.25;4917684;29;20158;-80
2023/05/11 07:26:24;;;;;;;4.65;1.42;;;;;;;13.21;100.00;100680.09;4924887;29;20034;-79
2023/05/11 07:28:49;;;;;;;8.25;1.48;;;;;;;13.34;100.00;100676.50;4924548;29;20353;-80
2023/05/11 07:31:15;;;;;;;9.43;1.60;;;;;;;13.49;100.00;100678.19;4924543;29;20032;-80
2023/05/11 07:33:41;;;;;;;9.57;1.55;;;;;;;13.62;100.00;100682.94;4924393;29;20370;-80
2023/05/11 07:36:06;;;;;;;9.43;1.60;;;;;;;13.75;100.00;100677.66;4923455;29;20447;-79
2023/05/11 07:38:32;;;;;;;6.30;1.33;;;;;;;13.89;100.00;100672.88;4909873;29;20046;-80
2023/05/11 07:40:58;;;;;;;9.63;1.40;;;;;;;14.03;100.00;100673.69;4921561;29;20095;-79
2023/05/11 07:43:23;;;;;;;12.75;2.20;;;;;;;14.16;100.00;100676.78;4935058;29;20071;-79
2023/05/11 07:45:48;;;;;;;6.68;1.60;;;;;;;14.31;100.00;100673.63;4924045;29;20027;-80
2023/05/11 07:48:14;;;;;;;9.52;2.03;;;;;;;14.45;100.00;100667.97;4924378;29;20060;-80
2023/05/11 07:50:41;;;;;;;9.40;2.50;;;;;;;14.60;100.00;100675.19;4919703;29;20417;-80
2023/05/11 07:53:06;;;;;;;11.20;2.30;;;;;;;14.75;100.00;100674.81;4924429;29;20036;-80
2023/05/11 07:55:32;;;;;;;9.07;2.45;;;;;;;14.86;100.00;100675.38;4924002;29;20048;-80
2023/05/11 07:57:57;;;;;;;11.30;2.55;;;;;;;15.01;100.00;100665.78;4901638;29;20039;-80
2023/05/11 08:00:23;;;;;;;12.27;2.28;;;;;;;15.17;100.00;100669.81;4924222;29;20028;-80
2023/05/11 08:02:48;;;;;;;11.15;2.13;;;;;;;15.31;100.00;100672.50;4940802;29;20066;-80
2023/05/11 08:05:15;;;;;;;7.85;1.65;;;;;;;15.44;100.00;100674.38;4924174;29;20086;-80
2023/05/11 08:07:41;;;;;;;12.95;2.00;;;;;;;15.56;100.00;100665.38;4926133;29;20046;-80
2023/05/11 08:10:07;;;;;;;13.57;2.38;;;;;;;15.68;100.00;100664.75;4923683;29;20032;-80
2023/05/11 08:12:34;;;;;;;10.32;1.95;;;;;;;15.82;100.00;100666.31;4923825;29;20032;-80
2023/05/11 08:14:59;;;;;;;9.60;2.00;;;;;;;15.90;100.00;100669.44;4927341;29;20054;-80
2023/05/11 08:17:25;;;;;;;10.48;2.28;;;;;;;15.97;100.00;100669.81;4939403;29;20031;-79
2023/05/11 08:19:51;;;;;;;12.27;2.17;;;;;;;16.01;100.00;100670.78;4930946;29;20043;-80
2023/05/11 08:22:16;;;;;;;12.73;2.22;;;;;;;16.12;100.00;100672.13;4935196;29;20400;-80
2023/05/11 08:24:42;;;;;;;13.60;2.30;;;;;;;16.24;100.00;100672.31;4924962;29;20035;-80
2023/05/11 08:27:08;;;;;;;11.27;2.08;;;;;;;16.33;100.00;100669.53;4931841;29;20032;-80
2023/05/11 08:29:33;;;;;;;12.38;2.60;;;;;;;16.44;100.00;100664.41;4923594;29;20028;-80
2023/05/11 08:31:59;;;;;;;10.65;2.10;;;;;;;16.53;100.00;100668.84;4949724;29;20039;-80
2023/05/11 08:34:24;;;;;;;10.48;2.00;;;;;;;16.59;100.00;100671.50;4923435;29;20035;-80
2023/05/11 08:36:50;;;;;;;9.18;1.98;;;;;;;16.67;100.00;100660.25;4923359;29;20032;-80
2023/05/11 08:39:16;;;;;;;10.20;2.20;;;;;;;16.70;100.00;100668.00;4922591;29;20036;-73
2023/05/11 08:41:42;;;;;;;13.05;2.20;;;;;;;16.72;100.00;100660.09;4939034;29;20031;-73
2023/05/11 08:44:07;;;;;;;11.23;1.83;;;;;;;16.81;100.00;100662.91;4939249;29;20110;-73
2023/05/11 08:46:34;;;;;;;8.88;2.17;;;;;;;16.88;100.00;100662.41;4922926;29;20028;-73
2023/05/11 08:48:59;;;;;;;12.63;2.15;;;;;;;16.94;100.00;100663.91;4939178;29;20055;-73
2023/05/11 08:51:27;;;;;;;10.60;1.80;;;;;;;17.02;100.00;100665.88;4938873;29;20043;-73
2023/05/11 08:53:52;;;;;;;13.07;1.52;;;;;;;17.07;100.00;100665.66;4907377;29;20040;-73
2023/05/11 08:56:18;;;;;;;11.15;2.38;;;;;;;17.11;100.00;100661.03;4922058;29;20161;-73
2023/05/11 08:58:44;;;;;;;11.25;2.10;;;;;;;17.15;100.00;100664.81;4936402;29;20054;-73
2023/05/11 09:01:11;;;;;;;9.18;1.60;;;;;;;17.20;100.00;100664.63;4919435;29;20111;-73
2023/05/11 09:03:38;;;;;;;10.95;2.30;;;;;;;17.28;100.00;100657.34;4928900;29;20041;-73
2023/05/11 09:06:06;;;;;;;8.57;2.10;;;;;;;17.35;100.00;100657.63;4938523;29;20492;-72
2023/05/11 09:08:31;;;;;;;12.05;1.67;;;;;;;17.43;100.00;100655.97;4922606;29;20043;-73
2023/05/11 09:10:57;;;;;;;9.70;1.58;;;;;;;17.56;100.00;100654.09;4938656;29;20472;-73
2023/05/11 09:13:24;;;;;;;7.32;1.33;;;;;;;17.58;100.00;100658.22;4937727;29;20032;-73
2023/05/11 09:15:50;;;;;;;8.98;1.50;;;;;;;17.73;100.00;100651.19;4938114;29;20031;-73
2023/05/11 09:18:16;;;;;;;7.00;1.88;;;;;;;17.87;100.00;100656.59;4938679;29;20035;-73
2023/05/11 09:20:42;;;;;;;5.13;1.33;;;;;;;17.99;100.00;100662.28;4922529;29;20059;-73
2023/05/11 09:23:07;;;;;;;6.65;1.38;;;;;;;18.14;100.00;100652.47;4922532;29;20036;-73
2023/05/11 09:25:33;;;;;;;7.35;2.00;;;;;;;18.25;100.00;100647.25;4938209;29;20452;-73
2023/05/11 09:27:59;;;;;;;11.10;1.92;;;;;;;18.41;100.00;100651.06;4938460;29;20039;-73
2023/05/11 09:30:24;;;;;;;8.27;1.58;;;;;;;18.57;100.00;100653.25;4938319;29;20114;-73
2023/05/11 09:32:57;;;;;;;7.22;1.20;;;;;;;18.75;100.00;100651.97;4924606;29;20035;-73
2023/05/11 09:35:24;;;;;;;4.93;1.25;;;;;;;18.93;100.00;100649.78;4938067;29;20102;-73
2023/05/11 09:37:59;;;;;;;6.82;1.23;;;;;;;19.11;95.24;100645.63;4938280;29;20044;-73
2023/05/11 09:40:27;;;;;;;8.10;1.58;;;;;;;19.25;90.26;100644.47;4937860;29;20028;-73
2023/05/11 09:42:53;;;;;;;7.80;1.73;;;;;;;19.45;91.46;100645.56;4938271;29;20114;-73
2023/05/11 09:45:41;;;;;;;8.07;1.10;;;;;;;19.67;93.16;100644.28;4938037;29;20105;-73
2023/05/11 09:48:19;;;;;;;4.60;1.10;;;;;;;19.89;93.73;100646.63;4938241;29;20046;-73
2023/05/11 09:50:48;;;;;;;11.57;1.45;;;;;;;20.06;86.76;100635.09;4937067;29;20036;-74
2023/05/11 09:53:16;;;;;;;5.05;1.52;;;;;;;20.33;89.07;100640.31;4922517;29;20119;-73
2023/05/11 09:55:50;;;;;;;5.88;1.02;;;;;;;20.58;88.77;100636.25;4915458;29;20124;-73
2023/05/11 09:58:15;;;;;;;5.57;1.10;;;;;;;20.74;86.06;100639.94;4931242;29;20052;-73
2023/05/11 10:00:49;;;;;;;7.15;1.80;;;;;;;20.90;80.33;100645.66;4934637;29;20064;-73
2023/05/11 10:03:15;;;;;;;7.25;1.10;;;;;;;20.99;81.31;100639.81;4919543;29;20032;-73
2023/05/11 10:05:40;;;;;;;8.15;1.20;;;;;;;21.01;73.52;100640.28;4918782;29;20047;-74
2023/05/11 10:08:06;;;;;;;6.75;1.50;;;;;;;21.04;72.74;100638.75;4934025;29;20036;-73
2023/05/11 10:10:32;;;;;;;5.18;1.42;;;;;;;20.99;71.79;100631.34;4934751;29;20028;-74
2023/05/11 10:12:58;;;;;;;8.00;1.40;;;;;;;20.92;68.85;100629.19;4918039;29;20028;-73
2023/05/11 10:15:27;;;;;;;5.30;1.30;;;;;;;20.84;68.41;100635.81;4917508;29;20024;-73
2023/05/11 10:17:57;;;;;;;6.38;1.10;;;;;;;20.75;72.21;100637.94;4903273;29;20036;-73
2023/05/11 10:20:23;;;;;;;6.32;1.15;;;;;;;20.61;72.04;100631.91;4932925;29;20032;-74
2023/05/11 10:22:51;;;;;;;7.40;1.00;;;;;;;20.52;75.96;100640.50;4918430;29;20039;-74
2023/05/11 10:25:17;;;;;;;8.93;1.35;;;;;;;20.37;80.70;100632.78;4917115;29;20032;-74
2023/05/11 10:27:42;;;;;;;8.25;1.05;;;;;;;20.19;81.56;100644.34;4934172;29;20043;-73
2023/05/11 10:30:09;;;;;;;5.28;1.40;;;;;;;20.03;85.87;100646.25;4920759;29;20036;-73
2023/05/11 10:32:38;;;;;;;6.53;1.02;;;;;;;19.79;86.64;100642.28;4933622;29;20040;-73
2023/05/11 10:35:04;;;;;;;8.52;1.13;;;;;;;19.64;86.05;100645.81;4918344;29;20508;-73
2023/05/11 10:37:30;;;;;;;7.22;1.20;;;;;;;19.51;88.07;100641.34;4915665;29;20029;-73
2023/05/11 10:39:56;;;;;;;5.78;1.20;;;;;;;19.36;84.90;100645.66;4933963;29;20098;-74
2023/05/11 10:42:24;;;;;;;5.63;1.02;;;;;;;19.23;83.71;100652.47;4915250;29;20032;-73
2023/05/11 10:45:21;;;;;;;7.85;1.52;;;;;;;19.09;84.75;100655.59;4912075;29;20040;-73
2023/05/11 10:47:54;;;;;;;7.07;1.33;;;;;;;18.94;86.06;100655.09;4933994;29;20076;-71
2023/05/11 10:50:39;;;;;;;6.05;1.38;;;;;;;18.84;85.97;100647.06;4934175;29;20044;-71
2023/05/11 10:53:17;;;;;;;6.13;1.17;;;;;;;18.77;87.73;100652.44;4934376;29;20370;-71
2023/05/11 10:56:13;;;;;;;7.60;1.40;;;;;;;18.68;85.84;100654.47;4933846;28;20743;-71
2023/05/11 10:58:44;;;;;;;6.03;1.20;;;;;;;18.61;83.15;100659.84;4884816;29;20072;-71
2023/05/11 11:01:31;;;;;;;7.80;1.38;;;;;;;18.51;87.20;100661.91;4927995;29;20543;-71
2023/05/11 11:04:05;;;;;;;5.88;1.00;;;;;;;18.38;85.68;100677.06;4919312;29;20441;-71
2023/05/11 11:06:34;;;;;;;6.07;0.80;;;;;;;18.26;89.51;100674.19;4918005;29;20052;-71
2023/05/11 11:09:02;;;;;;;3.97;0.98;;;;;;;18.09;97.85;100673.16;4932772;29;20506;-71
2023/05/11 11:11:31;;;;;;;3.30;0.77;;;;;;;17.97;100.00;100678.69;4933998;29;20143;-71
2023/05/11 11:14:00;;;;;;;8.68;1.05;;;;;;;17.76;100.00;100675.78;4918117;29;20047;-71
2023/05/11 11:16:26;;;;;;;3.55;0.90;;;;;;;17.58;100.00;100675.06;4933862;29;20032;-71
2023/05/11 11:18:56;;;;;;;4.93;1.25;;;;;;;17.44;100.00;100680.09;4934054;29;20036;-71